Time;durP1;ratioP1;P1;durP2;ratioP2;P2;SDS_P1;SDS_P2;PMS_P1;PMS_P2;Temp;Humidity;BMP_temperature;BMP_pressure;BME280_temperature;BME280_humidity;BME280_pressure;Samples;Min_cycle;Max_cycle;Signal;HPM_P1;HPM_P2
2024/03/12 00:00:18;;;;;;;2.30;2.10;;;9.50;99.90;;;;;;5073560;28;20397;-69
2024/03/12 00:02:47;;;;;;;2.50;2.07;;;9.40;99.90;;;;;;5090114;28;20973;-70
2024/03/12 00:05:18;;;;;;;2.40;2.17;;;9.30;99.90;;;;;;5094014;28;20439;-70
2024/03/12 00:07:48;;;;;;;2.50;2.30;;;9.30;99.90;;;;;;5094030;28;20453;-69
2024/03/12 00:10:16;;;;;;;1.90;1.67;;;9.30;99.90;;;;;;5093923;28;20478;-70
2024/03/12 00:12:47;;;;;;;2.20;2.00;;;9.30;99.90;;;;;;5093537;28;20938;-71
2024/03/12 00:15:23;;;;;;;5.07;2.00;;;9.40;99.90;;;;;;5075958;28;20416;-69
2024/03/12 00:17:51;;;;;;;3.17;2.33;;;9.30;99.90;;;;;;5093076;28;20822;-70
2024/03/12 00:20:17;;;;;;;3.47;2.40;;;9.30;99.90;;;;;;5093528;28;20405;-70
2024/03/12 00:22:47;;;;;;;2.83;2.30;;;9.30;99.90;;;;;;5094393;28;20443;-71
2024/03/12 00:25:14;;;;;;;2.30;1.90;;;9.20;99.90;;;;;;5093347;28;20399;-70
2024/03/12 00:27:40;;;;;;;3.20;2.13;;;9.20;99.90;;;;;;5093033;28;20438;-70
2024/03/12 00:30:09;;;;;;;2.30;2.10;;;9.20;99.90;;;;;;5091285;28;20411;-70
2024/03/12 00:32:36;;;;;;;2.50;2.30;;;9.20;99.90;;;;;;5093313;28;20258;-69
2024/03/12 00:35:03;;;;;;;2.70;2.10;;;9.20;99.90;;;;;;5093154;28;20777;-69
2024/03/12 00:37:29;;;;;;;4.87;2.63;;;9.20;99.90;;;;;;5092842;28;20797;-69
2024/03/12 00:39:55;;;;;;;2.70;2.50;;;9.30;99.90;;;;;;5093079;28;20412;-69
2024/03/12 00:42:22;;;;;;;5.43;2.40;;;9.30;99.90;;;;;;5093185;28;20161;-69
2024/03/12 00:44:49;;;;;;;3.40;2.50;;;9.20;99.90;;;;;;5074701;28;20421;-70
2024/03/12 00:47:14;;;;;;;3.90;2.53;;;9.00;99.90;;;;;;5092771;28;20419;-70
2024/03/12 00:49:40;;;;;;;2.77;2.47;;;9.00;99.90;;;;;;5092435;28;20415;-70
2024/03/12 00:52:06;;;;;;;4.83;2.57;;;9.00;99.90;;;;;;5092765;28;20211;-69
2024/03/12 00:54:35;;;;;;;2.70;2.47;;;9.00;99.90;;;;;;5092858;28;20173;-69
2024/03/12 00:57:02;;;;;;;4.40;2.83;;;9.00;99.90;;;;;;5092737;28;20676;-70
2024/03/12 00:59:29;;;;;;;2.70;2.50;;;8.90;99.90;;;;;;5092674;28;20783;-69
2024/03/12 01:01:54;;;;;;;2.93;2.63;;;8.90;99.90;;;;;;5093298;28;20392;-71
2024/03/12 01:04:21;;;;;;;2.50;2.30;;;8.80;99.90;;;;;;5092769;28;21009;-69
2024/03/12 01:06:49;;;;;;;2.50;2.30;;;8.80;99.90;;;;;;5092901;28;20226;-70
2024/03/12 01:09:17;;;;;;;2.87;2.60;;;8.90;99.90;;;;;;5092613;28;20797;-70
2024/03/12 01:11:47;;;;;;;3.27;2.70;;;8.70;99.90;;;;;;5092658;28;20878;-70
2024/03/12 01:14:14;;;;;;;2.60;2.33;;;8.80;99.90;;;;;;5092958;28;20905;-70
2024/03/12 01:16:40;;;;;;;2.63;2.43;;;8.70;99.90;;;;;;5092641;28;20497;-69
2024/03/12 01:19:07;;;;;;;3.03;2.47;;;8.80;99.90;;;;;;5092600;28;20509;-71
2024/03/12 01:21:34;;;;;;;3.00;2.30;;;8.70;99.90;;;;;;5092479;28;20599;-70
2024/03/12 01:24:01;;;;;;;2.97;2.67;;;8.80;99.90;;;;;;5092668;28;20943;-70
2024/03/12 01:26:27;;;;;;;3.17;2.87;;;8.80;99.90;;;;;;5092670;28;20408;-70
2024/03/12 01:28:52;;;;;;;2.63;2.33;;;8.50;99.90;;;;;;5092411;28;20515;-71
2024/03/12 01:31:21;;;;;;;2.93;2.33;;;8.60;99.90;;;;;;5092615;28;20165;-70
2024/03/12 01:33:46;;;;;;;2.97;2.77;;;8.70;99.90;;;;;;5091277;28;20542;-70
2024/03/12 01:36:20;;;;;;;3.23;2.87;;;8.70;99.90;;;;;;5092495;28;20751;-70
2024/03/12 01:38:48;;;;;;;3.40;2.40;;;8.70;99.90;;;;;;5116885;22;20492;-69
2024/03/12 01:41:15;;;;;;;2.47;2.27;;;8.70;99.90;;;;;;5092976;28;20392;-72
2024/03/12 01:43:42;;;;;;;3.10;2.40;;;8.70;99.90;;;;;;5092616;28;20454;-70
2024/03/12 01:46:10;;;;;;;2.33;2.13;;;8.80;99.90;;;;;;5092673;28;20412;-71
2024/03/12 01:48:35;;;;;;;2.60;2.40;;;8.80;99.90;;;;;;5092773;28;20422;-71
2024/03/12 01:51:01;;;;;;;3.60;2.17;;;8.70;99.90;;;;;;5092880;28;20884;-71
2024/03/12 01:53:27;;;;;;;3.60;2.90;;;8.60;99.90;;;;;;5093087;28;20169;-69
2024/03/12 01:55:52;;;;;;;3.40;2.63;;;8.30;99.90;;;;;;5092495;28;20545;-71
2024/03/12 01:58:20;;;;;;;2.70;2.50;;;8.30;99.90;;;;;;5096048;28;20180;-70
2024/03/12 02:00:46;;;;;;;3.63;3.10;;;8.20;99.90;;;;;;5096416;28;20176;-70
2024/03/12 02:03:11;;;;;;;2.50;2.30;;;8.10;99.90;;;;;;5096161;28;20537;-70
2024/03/12 02:05:37;;;;;;;3.87;2.87;;;8.00;99.90;;;;;;5095833;28;20635;-70
2024/03/12 02:08:03;;;;;;;3.70;2.80;;;8.00;99.90;;;;;;5095443;28;20164;-70
2024/03/12 02:10:28;;;;;;;3.20;2.80;;;8.00;99.90;;;;;;5095947;28;20192;-70
2024/03/12 02:12:54;;;;;;;2.80;2.50;;;8.00;99.90;;;;;;5095886;28;20414;-70
2024/03/12 02:15:22;;;;;;;4.80;3.40;;;7.90;99.90;;;;;;5096029;28;20170;-70
2024/03/12 02:17:51;;;;;;;2.60;2.40;;;7.80;99.90;;;;;;5096197;28;20628;-70
2024/03/12 02:20:17;;;;;;;3.47;2.60;;;7.90;99.90;;;;;;5095896;28;20479;-71
2024/03/12 02:22:43;;;;;;;3.70;3.00;;;7.90;99.90;;;;;;5095781;28;20443;-71
2024/03/12 02:25:10;;;;;;;3.40;2.73;;;8.00;99.90;;;;;;5096101;28;20161;-71
2024/03/12 02:27:36;;;;;;;2.30;2.10;;;7.90;99.90;;;;;;5095958;28;20396;-71
2024/03/12 02:30:02;;;;;;;3.00;2.80;;;8.00;99.90;;;;;;5095519;28;20950;-71
2024/03/12 02:32:27;;;;;;;2.90;2.67;;;8.00;99.90;;;;;;5095617;28;20846;-70
2024/03/12 02:34:53;;;;;;;3.60;3.10;;;7.90;99.90;;;;;;5096304;28;20415;-71
2024/03/12 02:37:21;;;;;;;3.40;3.10;;;7.90;99.90;;;;;;5078015;28;20630;-71
2024/03/12 02:39:46;;;;;;;3.17;2.80;;;8.00;99.90;;;;;;5095726;28;20227;-71
2024/03/12 02:42:12;;;;;;;3.50;3.07;;;7.80;99.90;;;;;;5095326;28;20403;-71
2024/03/12 02:44:38;;;;;;;3.23;2.93;;;7.80;99.90;;;;;;5095421;28;20624;-71
2024/03/12 02:47:04;;;;;;;2.80;2.53;;;7.70;99.90;;;;;;5095424;28;20321;-71
2024/03/12 02:49:30;;;;;;;3.00;2.70;;;7.60;99.90;;;;;;5095342;28;20191;-71
2024/03/12 02:51:55;;;;;;;3.43;3.13;;;7.50;99.90;;;;;;5095298;28;20396;-71
2024/03/12 02:54:21;;;;;;;4.10;3.50;;;7.30;99.90;;;;;;5095370;28;20200;-71
2024/03/12 02:56:48;;;;;;;3.13;2.83;;;7.40;99.90;;;;;;5095559;28;20521;-72
2024/03/12 02:59:14;;;;;;;4.10;3.23;;;7.40;99.90;;;;;;5095116;28;20198;-71
2024/03/12 03:01:40;;;;;;;4.37;3.33;;;7.40;99.90;;;;;;5095291;28;20856;-71
2024/03/12 03:04:08;;;;;;;3.33;3.07;;;7.40;99.90;;;;;;5095554;28;20458;-71
2024/03/12 03:06:34;;;;;;;3.37;2.70;;;7.40;99.90;;;;;;5095337;28;20470;-70
2024/03/12 03:09:00;;;;;;;3.40;3.07;;;7.40;99.90;;;;;;5093765;28;20427;-71
2024/03/12 03:11:26;;;;;;;4.80;4.30;;;7.50;99.90;;;;;;5095181;28;20462;-71
2024/03/12 03:13:51;;;;;;;4.50;3.67;;;7.50;99.90;;;;;;5095141;28;20178;-71
2024/03/12 03:16:20;;;;;;;4.50;3.07;;;7.40;99.90;;;;;;5095092;28;20173;-71
2024/03/12 03:18:46;;;;;;;4.00;2.90;;;7.40;99.90;;;;;;5094522;28;20617;-71
2024/03/12 03:21:12;;;;;;;3.40;3.10;;;7.40;99.90;;;;;;5094950;28;20547;-71
2024/03/12 03:23:41;;;;;;;3.63;3.33;;;7.30;99.90;;;;;;5094881;28;21010;-71
2024/03/12 03:26:07;;;;;;;3.67;2.80;;;7.20;99.90;;;;;;5094846;28;20179;-71
2024/03/12 03:28:33;;;;;;;3.60;3.30;;;7.10;99.90;;;;;;5092532;28;20470;-71
2024/03/12 03:30:59;;;;;;;2.67;2.47;;;7.00;99.90;;;;;;5094771;28;20401;-70
2024/03/12 03:33:25;;;;;;;3.87;3.57;;;7.10;99.90;;;;;;5094420;28;20171;-71
2024/03/12 03:35:54;;;;;;;3.33;3.03;;;7.20;99.90;;;;;;5094361;28;20504;-71
2024/03/12 03:38:20;;;;;;;3.13;2.90;;;7.30;99.90;;;;;;5080018;28;20929;-71
2024/03/12 03:40:46;;;;;;;3.37;3.07;;;7.30;99.90;;;;;;5094919;28;20898;-71
2024/03/12 03:43:12;;;;;;;2.57;2.37;;;7.20;99.90;;;;;;5094152;28;20537;-70
2024/03/12 03:45:37;;;;;;;3.43;3.13;;;7.40;99.90;;;;;;5094229;28;20442;-70
2024/03/12 03:48:04;;;;;;;3.43;2.77;;;7.40;99.90;;;;;;5094145;28;20183;-71
2024/03/12 03:50:29;;;;;;;3.43;3.13;;;7.50;99.90;;;;;;5094019;28;20639;-71
2024/03/12 03:52:55;;;;;;;3.30;3.00;;;7.80;99.90;;;;;;5094055;28;20435;-71
2024/03/12 03:55:23;;;;;;;3.53;2.90;;;7.90;99.90;;;;;;5093626;28;20639;-71
2024/03/12 03:57:52;;;;;;;3.60;3.13;;;8.00;99.90;;;;;;5094043;28;20545;-71
2024/03/12 04:00:23;;;;;;;3.60;3.30;;;8.10;99.90;;;;;;5093899;28;20975;-71
2024/03/12 04:02:49;;;;;;;3.10;2.90;;;8.40;99.90;;;;;;5059890;28;20436;-71
2024/03/12 04:05:16;;;;;;;3.73;2.77;;;8.50;99.90;;;;;;5093861;28;20744;-71
2024/03/12 04:07:43;;;;;;;3.90;2.67;;;8.70;99.90;;;;;;5093803;28;20468;-71
2024/03/12 04:10:10;;;;;;;3.90;2.70;;;8.80;99.90;;;;;;5093798;28;20426;-71
2024/03/12 04:12:38;;;;;;;2.90;2.70;;;8.80;99.90;;;;;;5093971;28;20406;-71
2024/03/12 04:15:04;;;;;;;3.30;2.60;;;8.90;99.90;;;;;;5092471;28;20404;-71
2024/03/12 04:17:30;;;;;;;2.87;2.57;;;8.80;99.90;;;;;;5093220;28;20541;-71
2024/03/12 04:19:56;;;;;;;2.27;2.07;;;8.60;99.90;;;;;;5093190;28;20475;-71
2024/03/12 04:22:21;;;;;;;2.30;2.10;;;8.80;99.90;;;;;;5093531;28;20489;-71
2024/03/12 04:24:47;;;;;;;2.67;2.47;;;9.00;99.90;;;;;;5093518;28;20534;-71
2024/03/12 04:27:14;;;;;;;2.83;2.63;;;9.20;99.90;;;;;;5094035;28;20154;-71
2024/03/12 04:29:41;;;;;;;2.20;2.00;;;9.30;99.90;;;;;;5093369;28;20652;-71
2024/03/12 04:32:07;;;;;;;3.80;2.33;;;9.10;99.90;;;;;;5093466;28;20447;-71
2024/03/12 04:34:33;;;;;;;2.50;2.30;;;9.20;99.90;;;;;;5093695;28;20762;-71
2024/03/12 04:37:00;;;;;;;3.47;2.50;;;9.20;99.90;;;;;;5093381;28;20255;-71
2024/03/12 04:39:32;;;;;;;3.90;2.50;;;9.30;99.90;;;;;;5093240;28;20488;-71
2024/03/12 04:42:04;;;;;;;3.43;2.37;;;9.30;99.90;;;;;;5093864;28;20474;-71
2024/03/12 04:44:31;;;;;;;3.03;2.60;;;9.30;99.90;;;;;;5093948;28;20439;-71
2024/03/12 04:46:56;;;;;;;3.20;2.27;;;9.40;99.90;;;;;;5093183;28;20419;-71
2024/03/12 04:49:22;;;;;;;3.13;2.60;;;9.40;99.90;;;;;;5093028;28;20416;-71
2024/03/12 04:51:50;;;;;;;3.30;2.70;;;9.60;99.90;;;;;;5093512;28;20256;-71
2024/03/12 04:54:17;;;;;;;2.83;2.30;;;9.40;99.90;;;;;;5093388;28;20840;-71
2024/03/12 04:56:42;;;;;;;2.57;2.37;;;9.50;99.90;;;;;;5093121;28;20404;-71
2024/03/12 04:59:08;;;;;;;3.37;2.40;;;9.40;99.90;;;;;;5092956;28;20566;-71
2024/03/12 05:01:33;;;;;;;3.20;2.90;;;9.50;99.90;;;;;;5093094;28;20171;-71
2024/03/12 05:03:59;;;;;;;3.57;2.10;;;9.60;99.90;;;;;;5093088;28;20220;-71
2024/03/12 05:06:24;;;;;;;2.60;2.03;;;9.70;99.90;;;;;;5093016;28;20546;-71
2024/03/12 05:08:50;;;;;;;2.67;2.47;;;9.50;99.90;;;;;;5093439;28;20265;-71
2024/03/12 05:11:15;;;;;;;2.60;2.30;;;9.30;99.90;;;;;;5093216;28;20162;-71
2024/03/12 05:13:41;;;;;;;3.30;2.30;;;9.60;99.90;;;;;;5093041;28;20172;-71
2024/03/12 05:16:07;;;;;;;3.07;2.60;;;9.70;99.90;;;;;;5093287;28;20175;-71
2024/03/12 05:18:33;;;;;;;2.77;2.57;;;9.90;99.90;;;;;;5093050;28;20951;-71
2024/03/12 05:20:58;;;;;;;1.90;1.77;;;10.00;99.90;;;;;;5093286;28;20162;-71
2024/03/12 05:23:24;;;;;;;3.70;2.60;;;10.00;99.90;;;;;;5092630;28;20648;-71
2024/03/12 05:25:51;;;;;;;3.20;2.77;;;10.10;99.90;;;;;;5093371;28;20173;-71
2024/03/12 05:28:19;;;;;;;2.83;2.43;;;10.10;99.90;;;;;;5092947;28;20173;-72
2024/03/12 05:30:45;;;;;;;2.50;2.30;;;10.10;99.90;;;;;;5072892;28;20452;-71
2024/03/12 05:33:15;;;;;;;3.23;3.00;;;10.00;99.90;;;;;;5075984;28;20475;-71
2024/03/12 05:35:52;;;;;;;2.80;2.50;;;9.90;99.90;;;;;;5076536;28;20454;-71
2024/03/12 05:38:35;;;;;;;3.53;2.20;;;9.90;99.90;;;;;;5076173;28;20385;-71
2024/03/12 05:49:14;;;;;;;3.10;2.80;;;9.90;99.90;;;;;;5068496;28;20447;-70
2024/03/12 05:51:39;;;;;;;2.60;2.10;;;9.90;99.90;;;;;;5096395;28;20815;-70
2024/03/12 05:54:05;;;;;;;2.80;2.60;;;9.90;99.90;;;;;;5096655;28;20430;-70
2024/03/12 05:56:31;;;;;;;3.47;3.17;;;9.90;99.90;;;;;;5096725;28;20170;-70
2024/03/12 05:58:58;;;;;;;2.90;2.60;;;9.90;99.90;;;;;;5096364;28;20196;-70
2024/03/12 06:01:24;;;;;;;2.83;2.57;;;9.80;99.90;;;;;;5096527;28;20818;-70
2024/03/12 06:03:53;;;;;;;3.17;2.97;;;9.90;99.90;;;;;;5096749;28;20544;-70
2024/03/12 06:06:19;;;;;;;3.90;2.67;;;9.90;99.90;;;;;;5096446;28;20170;-70
2024/03/12 06:08:44;;;;;;;2.80;2.50;;;9.90;99.90;;;;;;5095957;28;20437;-70
2024/03/12 06:11:12;;;;;;;5.33;3.33;;;9.90;99.90;;;;;;5096151;28;20164;-70
2024/03/12 06:13:38;;;;;;;2.80;2.60;;;10.00;99.90;;;;;;5096307;28;20193;-70
2024/03/12 06:16:05;;;;;;;3.73;3.33;;;9.80;99.90;;;;;;5096021;28;20405;-70
2024/03/12 06:18:31;;;;;;;2.90;2.60;;;9.90;99.90;;;;;;5096001;28;20412;-70
2024/03/12 06:20:57;;;;;;;3.00;2.70;;;9.90;99.90;;;;;;5096089;28;20774;-70
2024/03/12 06:23:23;;;;;;;3.20;2.90;;;9.60;99.90;;;;;;5095731;28;20192;-70
2024/03/12 06:25:49;;;;;;;3.43;2.93;;;9.70;99.90;;;;;;5095032;28;20467;-70
2024/03/12 06:28:14;;;;;;;2.93;2.73;;;9.80;99.90;;;;;;5095656;28;20452;-70
2024/03/12 06:30:43;;;;;;;4.67;3.00;;;9.80;99.90;;;;;;5095973;28;20952;-71
2024/03/12 06:33:09;;;;;;;3.20;2.90;;;10.00;99.90;;;;;;5096265;28;20173;-71
2024/03/12 06:35:35;;;;;;;3.57;3.07;;;10.00;99.90;;;;;;5096623;28;20407;-71
2024/03/12 06:38:04;;;;;;;3.13;2.83;;;10.00;99.90;;;;;;5095840;28;20439;-72
2024/03/12 06:40:30;;;;;;;3.27;2.97;;;10.10;99.90;;;;;;5096606;28;20977;-70
2024/03/12 06:42:58;;;;;;;3.10;2.80;;;10.20;99.90;;;;;;5096969;28;20501;-72
2024/03/12 06:45:24;;;;;;;3.57;2.87;;;10.20;99.90;;;;;;5096060;28;20400;-70
2024/03/12 06:47:50;;;;;;;3.97;2.97;;;10.10;99.90;;;;;;5096466;28;20723;-71
2024/03/12 06:50:16;;;;;;;3.80;3.10;;;10.30;99.90;;;;;;5095221;28;20551;-70
2024/03/12 06:52:47;;;;;;;2.63;2.43;;;10.30;99.90;;;;;;5095365;28;20408;-70
2024/03/12 06:55:12;;;;;;;2.60;2.30;;;10.40;99.90;;;;;;5095416;28;20154;-70
2024/03/12 06:57:47;;;;;;;3.20;2.77;;;10.50;99.90;;;;;;5095082;28;20893;-71
2024/03/12 07:00:14;;;;;;;2.70;2.50;;;10.30;99.90;;;;;;5095172;28;20187;-71
2024/03/12 07:02:40;;;;;;;3.80;2.85;;;10.10;99.90;;;;;;5094454;28;20420;-70
2024/03/12 07:05:09;;;;;;;6.33;2.60;;;10.20;99.90;;;;;;5095038;28;20237;-70
2024/03/12 07:07:35;;;;;;;3.20;2.70;;;10.10;99.90;;;;;;5094963;28;20191;-70
2024/03/12 07:10:03;;;;;;;3.30;2.80;;;10.00;99.90;;;;;;5095868;28;20423;-71
2024/03/12 07:12:33;;;;;;;5.00;3.40;;;10.20;99.90;;;;;;5095362;28;20406;-72
2024/03/12 07:14:58;;;;;;;3.07;2.33;;;10.40;99.90;;;;;;5094679;28;20771;-70
2024/03/12 07:17:24;;;;;;;3.03;2.40;;;10.50;99.90;;;;;;5094742;28;20401;-70
2024/03/12 07:19:50;;;;;;;3.43;2.50;;;10.30;99.90;;;;;;5094134;28;20787;-71
2024/03/12 07:22:20;;;;;;;2.93;2.73;;;10.30;99.90;;;;;;5094429;28;20196;-71
2024/03/12 07:24:45;;;;;;;3.17;2.60;;;10.40;99.90;;;;;;5094819;28;20405;-72
2024/03/12 07:27:13;;;;;;;4.53;2.53;;;10.50;99.90;;;;;;5098249;28;20405;-70
2024/03/12 07:29:39;;;;;;;2.87;2.13;;;10.50;99.90;;;;;;5095600;28;20659;-70
2024/03/12 07:32:07;;;;;;;2.90;2.60;;;10.60;99.90;;;;;;5095399;28;20493;-70
2024/03/12 07:34:33;;;;;;;2.30;2.10;;;10.60;99.90;;;;;;5095431;28;20443;-69
2024/03/12 07:37:00;;;;;;;2.60;2.17;;;10.50;99.90;;;;;;5095494;28;20414;-68
2024/03/12 07:39:31;;;;;;;3.20;2.33;;;10.30;99.90;;;;;;5118640;22;20224;-71
2024/03/12 07:41:59;;;;;;;4.40;2.70;;;10.50;99.90;;;;;;5093956;28;20402;-72
2024/03/12 07:44:24;;;;;;;2.85;2.50;;;10.70;99.90;;;;;;5093865;28;20480;-71
2024/03/12 07:46:50;;;;;;;2.63;2.37;;;10.50;99.90;;;;;;5094658;28;20160;-71
2024/03/12 07:49:22;;;;;;;3.00;2.07;;;10.50;99.90;;;;;;5093934;28;20272;-72
2024/03/12 07:51:51;;;;;;;3.37;2.30;;;10.50;99.90;;;;;;5094139;28;20157;-72
2024/03/12 07:54:18;;;;;;;2.20;2.00;;;10.70;99.90;;;;;;5093631;28;20421;-72
2024/03/12 07:56:48;;;;;;;3.20;2.70;;;10.80;99.90;;;;;;5094043;28;20410;-72
2024/03/12 07:59:17;;;;;;;3.87;2.27;;;10.70;99.90;;;;;;5093423;28;20427;-72
2024/03/12 08:01:46;;;;;;;2.37;2.07;;;10.60;99.90;;;;;;5093939;28;20403;-72
2024/03/12 08:04:12;;;;;;;2.55;2.08;;;10.60;99.90;;;;;;5093362;28;20424;-72
2024/03/12 08:06:39;;;;;;;2.27;2.00;;;10.60;99.90;;;;;;5093873;28;20568;-71
2024/03/12 08:09:06;;;;;;;2.00;1.90;;;10.30;99.90;;;;;;5093820;28;20424;-72
2024/03/12 08:11:33;;;;;;;1.60;1.50;;;10.20;99.90;;;;;;5092435;28;20414;-72
2024/03/12 08:13:59;;;;;;;1.77;1.50;;;10.20;99.90;;;;;;5094027;28;20407;-72
2024/03/12 08:16:25;;;;;;;1.53;1.37;;;10.30;99.90;;;;;;5094228;28;20414;-72
2024/03/12 08:18:50;;;;;;;7.90;1.97;;;10.40;99.90;;;;;;5095112;28;20776;-71
2024/03/12 08:21:16;;;;;;;1.87;1.60;;;10.50;99.90;;;;;;5111388;28;20180;-72
2024/03/12 08:23:41;;;;;;;2.03;1.83;;;10.50;99.90;;;;;;5103894;28;20235;-72
2024/03/12 08:26:07;;;;;;;1.93;1.60;;;10.20;99.90;;;;;;5094861;28;20174;-71
2024/03/12 08:28:33;;;;;;;1.40;1.30;;;10.00;99.90;;;;;;5094123;28;20593;-71
2024/03/12 08:30:59;;;;;;;2.07;1.67;;;9.90;99.90;;;;;;5094111;28;20169;-72
2024/03/12 08:33:25;;;;;;;1.83;1.60;;;10.20;99.90;;;;;;5094641;28;20442;-72
2024/03/12 08:35:50;;;;;;;1.53;1.43;;;10.30;99.90;;;;;;5094493;28;20172;-72
2024/03/12 08:38:16;;;;;;;2.00;1.40;;;10.30;99.90;;;;;;5094615;28;20188;-71
2024/03/12 08:40:42;;;;;;;2.10;1.90;;;10.40;99.90;;;;;;5094482;28;20264;-70
2024/03/12 08:43:08;;;;;;;3.20;2.00;;;10.50;99.90;;;;;;5076311;28;20659;-71
2024/03/12 08:45:35;;;;;;;1.80;1.70;;;10.40;99.90;;;;;;5106798;28;20402;-71
2024/03/12 08:48:03;;;;;;;1.60;1.50;;;10.40;99.90;;;;;;5111512;28;20216;-72
2024/03/12 08:50:29;;;;;;;1.73;1.63;;;10.30;99.90;;;;;;5112077;28;20425;-72
2024/03/12 08:52:54;;;;;;;2.10;1.37;;;10.40;99.90;;;;;;5109835;28;20471;-71
2024/03/12 08:55:20;;;;;;;2.00;1.33;;;10.30;99.90;;;;;;5107364;28;20422;-72
2024/03/12 08:57:46;;;;;;;1.40;1.30;;;10.30;99.90;;;;;;5104942;28;20233;-72
2024/03/12 09:00:12;;;;;;;2.07;1.50;;;10.40;99.90;;;;;;5106934;28;20256;-71
2024/03/12 09:02:39;;;;;;;1.47;1.37;;;10.60;99.90;;;;;;5106599;28;20173;-70
2024/03/12 09:05:09;;;;;;;2.03;1.13;;;10.50;99.90;;;;;;5087102;28;20418;-71
2024/03/12 09:07:37;;;;;;;1.87;1.70;;;10.60;99.90;;;;;;5108642;28;20846;-71
2024/03/12 09:10:11;;;;;;;1.90;1.60;;;10.60;99.90;;;;;;5105484;28;20490;-71
2024/03/12 09:12:36;;;;;;;2.10;1.80;;;10.50;99.90;;;;;;5110226;28;20394;-71
2024/03/12 09:15:02;;;;;;;1.57;1.47;;;10.40;99.90;;;;;;5097007;28;20965;-72
2024/03/12 09:17:28;;;;;;;4.57;1.90;;;10.40;99.90;;;;;;5097123;28;20176;-73
2024/03/12 09:19:54;;;;;;;2.73;2.37;;;10.60;99.90;;;;;;5096789;28;20427;-72
2024/03/12 09:22:19;;;;;;;2.20;1.70;;;10.70;99.90;;;;;;5097171;28;20537;-72
2024/03/12 09:24:45;;;;;;;3.47;2.67;;;10.90;99.90;;;;;;5096865;28;20354;-71
2024/03/12 09:27:10;;;;;;;3.50;2.20;;;11.20;99.90;;;;;;5097233;28;20170;-72
2024/03/12 09:29:36;;;;;;;5.00;3.03;;;11.20;99.90;;;;;;5096986;28;20281;-71
2024/03/12 09:32:03;;;;;;;3.87;2.50;;;11.30;99.90;;;;;;5096926;28;20262;-70
2024/03/12 09:34:29;;;;;;;3.63;2.60;;;11.00;99.90;;;;;;5096856;28;20415;-72
2024/03/12 09:36:55;;;;;;;3.70;2.73;;;11.00;99.90;;;;;;5096465;28;20784;-73
2024/03/12 09:39:24;;;;;;;2.97;2.33;;;11.10;99.90;;;;;;5095938;28;20251;-72
2024/03/12 09:41:53;;;;;;;2.97;2.47;;;11.00;99.90;;;;;;5096441;28;20250;-71
2024/03/12 09:44:21;;;;;;;2.50;2.20;;;11.00;99.90;;;;;;5096535;28;20451;-72
2024/03/12 09:46:47;;;;;;;3.40;2.47;;;11.00;99.90;;;;;;5088223;28;20415;-72
2024/03/12 09:49:18;;;;;;;3.27;2.30;;;11.10;99.90;;;;;;5098803;28;20423;-73
2024/03/12 09:51:44;;;;;;;2.73;2.33;;;11.30;99.90;;;;;;5106265;28;20379;-71
2024/03/12 09:54:11;;;;;;;3.27;2.33;;;11.00;99.90;;;;;;5102938;28;20456;-71
2024/03/12 09:56:39;;;;;;;4.40;3.20;;;11.20;99.90;;;;;;5096091;28;20439;-73
2024/03/12 09:59:07;;;;;;;6.20;2.73;;;11.30;99.90;;;;;;5095705;28;20504;-72
2024/03/12 10:01:34;;;;;;;3.40;2.33;;;11.00;99.90;;;;;;5095929;28;20428;-72
2024/03/12 10:03:59;;;;;;;3.80;2.90;;;11.20;99.90;;;;;;5094472;28;20465;-70
2024/03/12 10:06:26;;;;;;;3.60;2.70;;;11.50;99.90;;;;;;5096131;28;20410;-72
2024/03/12 10:08:56;;;;;;;2.50;2.30;;;11.30;99.90;;;;;;5094302;28;20259;-72
2024/03/12 10:11:23;;;;;;;3.47;2.50;;;11.30;99.90;;;;;;5077389;28;20408;-71
2024/03/12 10:13:55;;;;;;;7.37;2.70;;;11.20;99.90;;;;;;5096160;28;20930;-72
2024/03/12 10:16:24;;;;;;;3.47;2.83;;;11.30;99.90;;;;;;5095606;28;20412;-72
2024/03/12 10:19:09;;;;;;;3.87;2.87;;;11.20;99.90;;;;;;5095036;28;20415;-72
2024/03/12 10:21:36;;;;;;;3.43;2.57;;;11.50;99.90;;;;;;5095602;28;20408;-71
2024/03/12 10:24:17;;;;;;;5.17;2.87;;;11.50;99.90;;;;;;5094266;28;20830;-73
2024/03/12 10:26:46;;;;;;;3.33;2.53;;;11.30;99.90;;;;;;5094924;28;20408;-71
2024/03/12 10:29:15;;;;;;;3.87;2.93;;;11.20;99.90;;;;;;5095405;28;20438;-73
2024/03/12 10:31:43;;;;;;;2.93;2.63;;;11.10;99.90;;;;;;5095540;28;20809;-72
2024/03/12 10:34:17;;;;;;;4.37;2.90;;;11.20;99.90;;;;;;5095297;28;20839;-72
2024/03/12 10:36:43;;;;;;;3.13;2.83;;;11.30;99.90;;;;;;5095285;28;20409;-72
2024/03/12 10:39:25;;;;;;;4.83;2.90;;;11.30;99.90;;;;;;5076778;28;20470;-72
2024/03/12 10:41:56;;;;;;;2.53;2.20;;;11.50;99.90;;;;;;5095328;28;20407;-71
2024/03/12 10:44:22;;;;;;;3.13;2.20;;;11.50;99.90;;;;;;5095374;28;20451;-71
2024/03/12 10:46:49;;;;;;;2.60;2.10;;;11.50;99.90;;;;;;5095014;28;20935;-72
2024/03/12 10:49:17;;;;;;;2.17;1.97;;;11.50;99.90;;;;;;5094124;28;20488;-71
2024/03/12 10:51:44;;;;;;;2.93;2.27;;;11.60;99.90;;;;;;5095480;28;20414;-71
2024/03/12 10:54:13;;;;;;;2.67;1.87;;;11.70;99.90;;;;;;5095775;28;20838;-73
2024/03/12 10:56:41;;;;;;;3.00;1.67;;;11.60;99.90;;;;;;5077156;28;20422;-74
2024/03/12 10:59:09;;;;;;;2.63;1.90;;;11.70;99.90;;;;;;5094815;28;20975;-71
2024/03/12 11:01:35;;;;;;;2.93;2.20;;;11.80;99.90;;;;;;5095069;28;20782;-70
2024/03/12 11:04:01;;;;;;;2.90;2.10;;;11.80;99.90;;;;;;5094671;28;20475;-70
2024/03/12 11:06:29;;;;;;;2.43;2.10;;;11.70;99.90;;;;;;5095009;28;20161;-70
2024/03/12 11:08:56;;;;;;;2.30;1.90;;;11.60;99.90;;;;;;5093251;28;20583;-71
2024/03/12 11:11:23;;;;;;;2.67;1.50;;;11.80;99.90;;;;;;5074500;28;20408;-71
2024/03/12 11:13:50;;;;;;;2.33;1.40;;;11.60;99.90;;;;;;5074848;28;20426;-70
2024/03/12 11:16:19;;;;;;;2.70;1.60;;;11.60;99.90;;;;;;5074442;28;20431;-71
2024/03/12 11:18:45;;;;;;;2.40;1.83;;;11.20;99.90;;;;;;5074360;28;20408;-72
2024/03/12 11:21:22;;;;;;;2.77;2.17;;;11.20;99.90;;;;;;5092577;28;20540;-72
2024/03/12 11:23:48;;;;;;;3.20;2.40;;;11.20;99.90;;;;;;5094731;28;20451;-72
2024/03/12 11:26:14;;;;;;;2.47;2.27;;;11.20;99.90;;;;;;5094348;28;20758;-72
2024/03/12 11:28:50;;;;;;;4.87;3.40;;;11.00;99.90;;;;;;5075718;28;20158;-73
2024/03/12 11:31:17;;;;;;;5.03;3.43;;;10.80;99.90;;;;;;5091370;28;20418;-70
2024/03/12 11:33:49;;;;;;;3.17;2.77;;;10.80;99.90;;;;;;5094175;28;20410;-72
2024/03/12 11:36:31;;;;;;;2.97;2.67;;;10.90;99.90;;;;;;5093012;28;20596;-72
2024/03/12 11:38:58;;;;;;;4.40;2.63;;;10.80;99.90;;;;;;5094143;28;20431;-71
2024/03/12 11:41:44;;;;;;;4.30;2.70;;;10.70;99.90;;;;;;5074109;28;20400;-72
2024/03/12 11:44:29;;;;;;;5.70;2.80;;;10.90;99.90;;;;;;5073697;28;20548;-71
2024/03/12 11:46:55;;;;;;;2.53;2.20;;;11.00;99.90;;;;;;5093165;28;20490;-70
2024/03/12 11:49:33;;;;;;;3.33;2.77;;;11.10;99.90;;;;;;5093679;28;20457;-71
2024/03/12 11:51:59;;;;;;;2.00;1.70;;;11.40;99.90;;;;;;5094095;28;20248;-71
2024/03/12 11:54:43;;;;;;;2.27;1.50;;;11.40;99.90;;;;;;5093888;28;20836;-71
2024/03/12 11:57:24;;;;;;;3.17;1.90;;;11.10;99.90;;;;;;5094088;28;20173;-70
2024/03/12 11:59:50;;;;;;;3.10;2.80;;;11.00;99.90;;;;;;5073501;28;20887;-72
2024/03/12 12:02:20;;;;;;;4.60;2.87;;;10.90;99.90;;;;;;5090013;28;20927;-72
2024/03/12 12:04:51;;;;;;;4.40;3.57;;;10.90;99.90;;;;;;5093561;28;20953;-72
2024/03/12 12:07:17;;;;;;;6.07;4.40;;;11.00;99.90;;;;;;5093492;28;20409;-72
2024/03/12 12:09:47;;;;;;;6.00;4.37;;;11.10;99.90;;;;;;5093697;28;20435;-70
2024/03/12 12:12:14;;;;;;;7.83;5.17;;;11.00;99.90;;;;;;5093695;28;20531;-73
2024/03/12 12:14:44;;;;;;;6.73;4.93;;;10.90;99.90;;;;;;5091875;28;20447;-71
2024/03/12 12:17:23;;;;;;;9.53;6.40;;;11.00;99.90;;;;;;5091977;28;20465;-71
2024/03/12 12:20:13;;;;;;;9.57;7.03;;;10.90;99.90;;;;;;5093376;28;21004;-71
2024/03/12 12:22:42;;;;;;;10.73;8.47;;;10.90;99.90;;;;;;5093196;28;20417;-70
2024/03/12 12:25:11;;;;;;;12.40;7.80;;;11.00;99.90;;;;;;5093145;28;20456;-73
2024/03/12 12:27:38;;;;;;;9.90;7.30;;;11.00;99.90;;;;;;5074936;28;20937;-71
2024/03/12 12:30:07;;;;;;;8.27;6.93;;;10.90;99.90;;;;;;5093235;28;21006;-72
2024/03/12 12:32:34;;;;;;;7.80;6.90;;;11.00;99.90;;;;;;5093205;28;20917;-72
2024/03/12 12:35:02;;;;;;;7.80;5.87;;;11.20;99.90;;;;;;5092779;28;20456;-72
2024/03/12 12:37:28;;;;;;;3.93;3.50;;;11.50;99.90;;;;;;5073537;28;20923;-68
2024/03/12 12:39:54;;;;;;;4.00;3.27;;;11.60;99.90;;;;;;5072998;28;20441;-71
2024/03/12 12:42:21;;;;;;;4.57;3.20;;;11.80;99.90;;;;;;5089791;28;20503;-73
2024/03/12 12:44:53;;;;;;;5.33;2.90;;;11.90;99.90;;;;;;5093567;28;20808;-72
2024/03/12 12:47:22;;;;;;;3.23;2.90;;;11.80;99.90;;;;;;5094234;28;20383;-75
2024/03/12 12:49:53;;;;;;;5.67;4.50;;;11.70;99.90;;;;;;5093184;28;20899;-73
2024/03/12 12:52:19;;;;;;;5.27;4.30;;;11.60;99.90;;;;;;5093055;28;20399;-71
2024/03/12 12:54:48;;;;;;;7.57;4.37;;;11.60;99.90;;;;;;5093015;28;20886;-73
2024/03/12 12:57:14;;;;;;;7.77;5.57;;;11.70;99.90;;;;;;5103238;28;20408;-74
2024/03/12 12:59:40;;;;;;;8.80;6.73;;;11.80;99.90;;;;;;5100253;28;20432;-73